sensor_id;sensor_type;location;lat;lon;timestamp;temperature;humidity
58983;DHT22;44771;49.982;8.560;2022-09-12T00:05:45;11.30;99.90
58983;DHT22;44771;49.982;8.560;2022-09-12T00:10:55;11.30;99.90
58983;DHT22;44771;49.982;8.560;2022-09-12T00:32:54;10.90;99.90
58983;DHT22;44771;49.982;8.560;2022-09-12T00:38:00;10.90;99.90
58983;DHT22;44771;49.982;8.560;2022-09-12T00:48:47;10.90;99.90
58983;DHT22;44771;49.982;8.560;2022-09-12T00:53:56;10.90;99.90
58983;DHT22;44771;49.982;8.560;2022-09-12T01:04:30;10.80;99.90
58983;DHT22;44771;49.982;8.560;2022-09-12T01:09:33;10.80;99.90
58983;DHT22;44771;49.982;8.560;2022-09-12T01:14:40;10.80;99.90
58983;DHT22;44771;49.982;8.560;2022-09-12T01:20:34;10.90;99.90
58983;DHT22;44771;49.982;8.560;2022-09-12T01:26:08;10.90;99.90
58983;DHT22;44771;49.982;8.560;2022-09-12T01:31:20;10.80;99.90
58983;DHT22;44771;49.982;8.560;2022-09-12T01:36:38;10.70;99.90
58983;DHT22;44771;49.982;8.560;2022-09-12T01:41:46;10.70;99.90
58983;DHT22;44771;49.982;8.560;2022-09-12T01:46:54;10.70;99.90
58983;DHT22;44771;49.982;8.560;2022-09-12T01:52:02;10.60;99.90
58983;DHT22;44771;49.982;8.560;2022-09-12T01:57:10;10.60;99.90
58983;DHT22;44771;49.982;8.560;2022-09-12T02:02:17;10.70;99.90
58983;DHT22;44771;49.982;8.560;2022-09-12T02:07:26;10.50;99.90
58983;DHT22;44771;49.982;8.560;2022-09-12T02:12:37;10.40;99.90
58983;DHT22;44771;49.982;8.560;2022-09-12T02:17:48;10.40;99.90
58983;DHT22;44771;49.982;8.560;2022-09-12T02:22:52;10.60;99.90
58983;DHT22;44771;49.982;8.560;2022-09-12T02:27:57;10.40;99.90
58983;DHT22;44771;49.982;8.560;2022-09-12T02:33:04;10.30;99.90
58983;DHT22;44771;49.982;8.560;2022-09-12T02:38:08;10.30;99.90
58983;DHT22;44771;49.982;8.560;2022-09-12T02:43:11;10.20;99.90
58983;DHT22;44771;49.982;8.560;2022-09-12T02:48:19;10.20;99.90
58983;DHT22;44771;49.982;8.560;2022-09-12T02:53:22;10.20;99.90
58983;DHT22;44771;49.982;8.560;2022-09-12T02:58:27;10.00;99.90
58983;DHT22;44771;49.982;8.560;2022-09-12T03:03:50;10.00;99.90
58983;DHT22;44771;49.982;8.560;2022-09-12T03:09:06;10.00;99.90
58983;DHT22;44771;49.982;8.560;2022-09-12T03:14:21;10.00;99.90
58983;DHT22;44771;49.982;8.560;2022-09-12T03:19:36;9.90;99.90
58983;DHT22;44771;49.982;8.560;2022-09-12T03:24:47;9.90;99.90
58983;DHT22;44771;49.982;8.560;2022-09-12T03:29:52;9.80;99.90
58983;DHT22;44771;49.982;8.560;2022-09-12T03:34:55;9.60;99.90
58983;DHT22;44771;49.982;8.560;2022-09-12T03:39:57;9.60;99.90
58983;DHT22;44771;49.982;8.560;2022-09-12T03:44:59;9.70;99.90
58983;DHT22;44771;49.982;8.560;2022-09-12T03:50:02;9.60;99.90
58983;DHT22;44771;49.982;8.560;2022-09-12T03:55:05;9.60;99.90
58983;DHT22;44771;49.982;8.560;2022-09-12T04:00:08;9.50;99.90
58983;DHT22;44771;49.982;8.560;2022-09-12T04:05:27;9.40;99.90
58983;DHT22;44771;49.982;8.560;2022-09-12T04:10:29;9.40;99.90
58983;DHT22;44771;49.982;8.560;2022-09-12T04:15:31;9.50;99.90
58983;DHT22;44771;49.982;8.560;2022-09-12T04:20:35;9.50;99.90
58983;DHT22;44771;49.982;8.560;2022-09-12T04:25:37;9.60;99.90
58983;DHT22;44771;49.982;8.560;2022-09-12T04:30:38;9.70;99.90
58983;DHT22;44771;49.982;8.560;2022-09-12T04:35:42;9.80;99.90
58983;DHT22;44771;49.982;8.560;2022-09-12T04:40:43;9.80;99.90
58983;DHT22;44771;49.982;8.560;2022-09-12T04:45:45;9.80;99.90
58983;DHT22;44771;49.982;8.560;2022-09-12T04:50:48;9.80;99.90
58983;DHT22;44771;49.982;8.560;2022-09-12T04:55:50;9.80;99.90
58983;DHT22;44771;49.982;8.560;2022-09-12T05:00:52;9.90;99.90
58983;DHT22;44771;49.982;8.560;2022-09-12T05:05:55;10.10;99.90
58983;DHT22;44771;49.982;8.560;2022-09-12T05:11:01;10.20;99.90
58983;DHT22;44771;49.982;8.560;2022-09-12T05:16:04;10.30;99.90
58983;DHT22;44771;49.982;8.560;2022-09-12T05:21:09;10.30;99.90
58983;DHT22;44771;49.982;8.560;2022-09-12T05:26:13;10.40;99.90
58983;DHT22;44771;49.982;8.560;2022-09-12T05:31:17;10.50;99.90
58983;DHT22;44771;49.982;8.560;2022-09-12T05:36:21;10.60;99.90
58983;DHT22;44771;49.982;8.560;2022-09-12T05:41:25;10.60;99.90
58983;DHT22;44771;49.982;8.560;2022-09-12T05:46:28;10.60;99.90
58983;DHT22;44771;49.982;8.560;2022-09-12T05:51:34;10.70;99.90
58983;DHT22;44771;49.982;8.560;2022-09-12T05:56:38;10.80;99.90
58983;DHT22;44771;49.982;8.560;2022-09-12T06:01:40;11.20;99.90
58983;DHT22;44771;49.982;8.560;2022-09-12T06:06:44;11.40;99.90
58983;DHT22;44771;49.982;8.560;2022-09-12T06:11:46;11.60;99.90
58983;DHT22;44771;49.982;8.560;2022-09-12T06:16:48;11.80;99.90
58983;DHT22;44771;49.982;8.560;2022-09-12T06:21:51;11.90;99.90
58983;DHT22;44771;49.982;8.560;2022-09-12T06:26:53;12.10;99.90
58983;DHT22;44771;49.982;8.560;2022-09-12T06:31:54;12.20;99.90
58983;DHT22;44771;49.982;8.560;2022-09-12T06:36:57;12.40;99.90
58983;DHT22;44771;49.982;8.560;2022-09-12T06:41:59;12.40;99.90
58983;DHT22;44771;49.982;8.560;2022-09-12T06:47:01;12.60;99.90
58983;DHT22;44771;49.982;8.560;2022-09-12T06:52:04;12.70;99.90
58983;DHT22;44771;49.982;8.560;2022-09-12T06:57:06;13.00;99.90
58983;DHT22;44771;49.982;8.560;2022-09-12T07:02:07;13.10;99.90
58983;DHT22;44771;49.982;8.560;2022-09-12T07:07:10;13.10;99.90
58983;DHT22;44771;49.982;8.560;2022-09-12T07:12:12;13.10;99.90
58983;DHT22;44771;49.982;8.560;2022-09-12T07:17:14;13.10;99.90
58983;DHT22;44771;49.982;8.560;2022-09-12T07:22:17;13.20;99.90
58983;DHT22;44771;49.982;8.560;2022-09-12T07:27:19;13.40;99.90
58983;DHT22;44771;49.982;8.560;2022-09-12T07:32:20;13.60;99.90
58983;DHT22;44771;49.982;8.560;2022-09-12T07:37:23;13.70;99.90
58983;DHT22;44771;49.982;8.560;2022-09-12T07:42:25;13.80;99.90
58983;DHT22;44771;49.982;8.560;2022-09-12T07:47:27;14.10;99.90
58983;DHT22;44771;49.982;8.560;2022-09-12T07:52:30;14.30;99.90
58983;DHT22;44771;49.982;8.560;2022-09-12T07:57:32;14.60;99.90
58983;DHT22;44771;49.982;8.560;2022-09-12T08:02:33;14.80;99.90
58983;DHT22;44771;49.982;8.560;2022-09-12T08:07:37;15.00;99.90
58983;DHT22;44771;49.982;8.560;2022-09-12T08:12:38;15.20;99.90
58983;DHT22;44771;49.982;8.560;2022-09-12T08:17:40;15.50;99.90
58983;DHT22;44771;49.982;8.560;2022-09-12T08:22:43;15.90;99.90
58983;DHT22;44771;49.982;8.560;2022-09-12T08:27:45;16.00;99.90
58983;DHT22;44771;49.982;8.560;2022-09-12T08:32:46;16.10;99.90
58983;DHT22;44771;49.982;8.560;2022-09-12T08:37:50;16.40;99.90
58983;DHT22;44771;49.982;8.560;2022-09-12T08:42:56;16.40;99.90
58983;DHT22;44771;49.982;8.560;2022-09-12T08:48:02;16.70;99.90
58983;DHT22;44771;49.982;8.560;2022-09-12T08:53:12;17.20;99.90
58983;DHT22;44771;49.982;8.560;2022-09-12T08:58:16;17.40;99.90
58983;DHT22;44771;49.982;8.560;2022-09-12T09:03:34;17.60;99.90
58983;DHT22;44771;49.982;8.560;2022-09-12T09:08:51;18.00;99.90
58983;DHT22;44771;49.982;8.560;2022-09-12T09:14:03;18.30;99.90
58983;DHT22;44771;49.982;8.560;2022-09-12T09:19:15;18.70;99.90
58983;DHT22;44771;49.982;8.560;2022-09-12T09:24:23;18.90;99.90
58983;DHT22;44771;49.982;8.560;2022-09-12T09:29:30;19.20;99.90
58983;DHT22;44771;49.982;8.560;2022-09-12T09:34:38;19.40;99.90
58983;DHT22;44771;49.982;8.560;2022-09-12T09:39:57;19.50;99.90
58983;DHT22;44771;49.982;8.560;2022-09-12T09:50:29;19.90;99.90
58983;DHT22;44771;49.982;8.560;2022-09-12T09:55:37;20.10;99.90
58983;DHT22;44771;49.982;8.560;2022-09-12T10:00:41;20.40;99.90
58983;DHT22;44771;49.982;8.560;2022-09-12T10:05:47;20.50;99.90
58983;DHT22;44771;49.982;8.560;2022-09-12T10:10:55;20.60;99.90
58983;DHT22;44771;49.982;8.560;2022-09-12T10:15:59;20.90;99.90
58983;DHT22;44771;49.982;8.560;2022-09-12T10:21:12;21.10;99.90
58983;DHT22;44771;49.982;8.560;2022-09-12T10:26:18;21.40;99.90
58983;DHT22;44771;49.982;8.560;2022-09-12T10:31:26;21.50;99.90
58983;DHT22;44771;49.982;8.560;2022-09-12T10:36:35;21.40;99.90
58983;DHT22;44771;49.982;8.560;2022-09-12T10:41:40;21.60;99.90
58983;DHT22;44771;49.982;8.560;2022-09-12T10:46:42;21.80;97.90
58983;DHT22;44771;49.982;8.560;2022-09-12T10:51:44;21.90;97.90
58983;DHT22;44771;49.982;8.560;2022-09-12T11:02:46;22.10;97.50
58983;DHT22;44771;49.982;8.560;2022-09-12T11:07:51;22.40;97.00
58983;DHT22;44771;49.982;8.560;2022-09-12T11:13:05;22.60;93.00
58983;DHT22;44771;49.982;8.560;2022-09-12T11:18:24;22.70;93.00
58983;DHT22;44771;49.982;8.560;2022-09-12T11:23:56;23.00;93.60
58983;DHT22;44771;49.982;8.560;2022-09-12T11:29:15;23.20;91.70
58983;DHT22;44771;49.982;8.560;2022-09-12T11:34:28;23.40;91.90
58983;DHT22;44771;49.982;8.560;2022-09-12T11:39:37;23.60;91.10
58983;DHT22;44771;49.982;8.560;2022-09-12T11:44:43;23.60;91.20
58983;DHT22;44771;49.982;8.560;2022-09-12T11:49:48;23.60;90.30
58983;DHT22;44771;49.982;8.560;2022-09-12T11:54:58;23.40;87.20
58983;DHT22;44771;49.982;8.560;2022-09-12T12:00:04;23.50;91.30
58983;DHT22;44771;49.982;8.560;2022-09-12T12:05:18;23.60;90.20
58983;DHT22;44771;49.982;8.560;2022-09-12T12:10:23;23.30;91.60
58983;DHT22;44771;49.982;8.560;2022-09-12T12:15:27;22.90;90.90
58983;DHT22;44771;49.982;8.560;2022-09-12T12:20:30;23.10;90.50
58983;DHT22;44771;49.982;8.560;2022-09-12T12:25:40;23.40;89.30
58983;DHT22;44771;49.982;8.560;2022-09-12T12:31:01;23.80;88.60
58983;DHT22;44771;49.982;8.560;2022-09-12T12:36:05;24.10;85.70
58983;DHT22;44771;49.982;8.560;2022-09-12T12:41:48;24.50;83.10
58983;DHT22;44771;49.982;8.560;2022-09-12T12:52:59;24.30;83.10
58983;DHT22;44771;49.982;8.560;2022-09-12T12:58:27;24.40;85.30
58983;DHT22;44771;49.982;8.560;2022-09-12T13:03:31;24.40;85.70
58983;DHT22;44771;49.982;8.560;2022-09-12T13:09:16;24.40;84.90
58983;DHT22;44771;49.982;8.560;2022-09-12T13:14:49;24.40;83.20
58983;DHT22;44771;49.982;8.560;2022-09-12T13:19:53;24.50;86.80
58983;DHT22;44771;49.982;8.560;2022-09-12T13:25:34;24.50;82.20
58983;DHT22;44771;49.982;8.560;2022-09-12T13:30:38;24.60;79.00
58983;DHT22;44771;49.982;8.560;2022-09-12T13:36:02;24.70;76.80
58983;DHT22;44771;49.982;8.560;2022-09-12T13:53:11;24.50;77.90
58983;DHT22;44771;49.982;8.560;2022-09-12T13:58:18;24.60;77.70
58983;DHT22;44771;49.982;8.560;2022-09-12T14:03:29;24.60;75.40
58983;DHT22;44771;49.982;8.560;2022-09-12T14:08:32;24.60;78.50
58983;DHT22;44771;49.982;8.560;2022-09-12T14:13:34;24.50;79.50
58983;DHT22;44771;49.982;8.560;2022-09-12T14:24:46;24.60;77.80
58983;DHT22;44771;49.982;8.560;2022-09-12T14:29:49;24.50;78.30
58983;DHT22;44771;49.982;8.560;2022-09-12T14:35:18;24.40;76.30
58983;DHT22;44771;49.982;8.560;2022-09-12T14:40:24;24.30;76.80
58983;DHT22;44771;49.982;8.560;2022-09-12T14:45:28;24.20;77.30
58983;DHT22;44771;49.982;8.560;2022-09-12T14:50:34;24.20;76.10
58983;DHT22;44771;49.982;8.560;2022-09-12T14:55:44;24.10;76.80
58983;DHT22;44771;49.982;8.560;2022-09-12T15:00:58;23.90;75.60
58983;DHT22;44771;49.982;8.560;2022-09-12T15:06:01;23.60;77.40
58983;DHT22;44771;49.982;8.560;2022-09-12T15:11:06;23.50;77.70
58983;DHT22;44771;49.982;8.560;2022-09-12T15:27:04;23.00;77.40
58983;DHT22;44771;49.982;8.560;2022-09-12T15:32:36;23.00;77.60
58983;DHT22;44771;49.982;8.560;2022-09-12T15:38:06;23.00;80.00
58983;DHT22;44771;49.982;8.560;2022-09-12T15:43:11;23.00;79.80
58983;DHT22;44771;49.982;8.560;2022-09-12T15:48:27;23.00;79.90
58983;DHT22;44771;49.982;8.560;2022-09-12T15:53:30;22.90;79.00
58983;DHT22;44771;49.982;8.560;2022-09-12T15:58:34;22.80;79.60
58983;DHT22;44771;49.982;8.560;2022-09-12T16:04:16;22.70;81.30
58983;DHT22;44771;49.982;8.560;2022-09-12T16:09:20;22.50;81.60
58983;DHT22;44771;49.982;8.560;2022-09-12T16:14:23;22.40;82.30
58983;DHT22;44771;49.982;8.560;2022-09-12T16:19:25;22.20;83.70
58983;DHT22;44771;49.982;8.560;2022-09-12T16:24:27;21.90;84.20
58983;DHT22;44771;49.982;8.560;2022-09-12T16:29:30;21.70;87.20
58983;DHT22;44771;49.982;8.560;2022-09-12T16:34:32;21.40;88.30
58983;DHT22;44771;49.982;8.560;2022-09-12T16:39:34;21.30;90.20
58983;DHT22;44771;49.982;8.560;2022-09-12T16:44:37;21.20;90.20
58983;DHT22;44771;49.982;8.560;2022-09-12T16:49:44;21.00;90.50
58983;DHT22;44771;49.982;8.560;2022-09-12T16:54:46;20.70;92.30
58983;DHT22;44771;49.982;8.560;2022-09-12T16:59:49;20.60;93.50
58983;DHT22;44771;49.982;8.560;2022-09-12T17:04:52;20.40;95.60
58983;DHT22;44771;49.982;8.560;2022-09-12T17:09:54;20.20;96.90
58983;DHT22;44771;49.982;8.560;2022-09-12T17:14:57;20.00;97.70
58983;DHT22;44771;49.982;8.560;2022-09-12T17:19:59;19.80;99.90
58983;DHT22;44771;49.982;8.560;2022-09-12T17:25:01;19.60;99.90
58983;DHT22;44771;49.982;8.560;2022-09-12T17:30:05;19.40;99.90
58983;DHT22;44771;49.982;8.560;2022-09-12T17:35:08;19.20;99.90
58983;DHT22;44771;49.982;8.560;2022-09-12T17:40:10;19.00;99.90
58983;DHT22;44771;49.982;8.560;2022-09-12T17:45:13;18.70;99.90
58983;DHT22;44771;49.982;8.560;2022-09-12T17:50:19;18.40;99.90
58983;DHT22;44771;49.982;8.560;2022-09-12T17:55:33;18.20;99.90
58983;DHT22;44771;49.982;8.560;2022-09-12T18:00:37;18.00;99.90
58983;DHT22;44771;49.982;8.560;2022-09-12T18:05:44;17.70;99.90
58983;DHT22;44771;49.982;8.560;2022-09-12T18:10:47;17.60;99.90
58983;DHT22;44771;49.982;8.560;2022-09-12T18:15:50;17.40;99.90
58983;DHT22;44771;49.982;8.560;2022-09-12T18:20:58;17.10;99.90
58983;DHT22;44771;49.982;8.560;2022-09-12T18:26:02;16.90;99.90
58983;DHT22;44771;49.982;8.560;2022-09-12T18:31:10;16.80;99.90
58983;DHT22;44771;49.982;8.560;2022-09-12T18:36:13;16.60;99.90
58983;DHT22;44771;49.982;8.560;2022-09-12T18:41:17;16.50;99.90
58983;DHT22;44771;49.982;8.560;2022-09-12T18:46:20;16.40;99.90
58983;DHT22;44771;49.982;8.560;2022-09-12T18:51:31;16.20;99.90
58983;DHT22;44771;49.982;8.560;2022-09-12T18:56:35;16.10;99.90
58983;DHT22;44771;49.982;8.560;2022-09-12T19:01:39;16.10;99.90
58983;DHT22;44771;49.982;8.560;2022-09-12T19:06:42;15.90;99.90
58983;DHT22;44771;49.982;8.560;2022-09-12T19:11:45;15.80;99.90
58983;DHT22;44771;49.982;8.560;2022-09-12T19:16:49;15.70;99.90
58983;DHT22;44771;49.982;8.560;2022-09-12T19:21:51;15.60;99.90
58983;DHT22;44771;49.982;8.560;2022-09-12T19:26:53;15.50;99.90
58983;DHT22;44771;49.982;8.560;2022-09-12T19:32:26;15.30;99.90
58983;DHT22;44771;49.982;8.560;2022-09-12T19:37:28;15.10;99.90
58983;DHT22;44771;49.982;8.560;2022-09-12T19:42:30;15.00;99.90
58983;DHT22;44771;49.982;8.560;2022-09-12T19:47:33;15.10;99.90
58983;DHT22;44771;49.982;8.560;2022-09-12T19:52:35;14.80;99.90
58983;DHT22;44771;49.982;8.560;2022-09-12T19:57:37;14.70;99.90
58983;DHT22;44771;49.982;8.560;2022-09-12T20:03:23;14.60;99.90
58983;DHT22;44771;49.982;8.560;2022-09-12T20:14:28;14.40;99.90
58983;DHT22;44771;49.982;8.560;2022-09-12T20:19:34;14.30;99.90
58983;DHT22;44771;49.982;8.560;2022-09-12T20:24:38;14.20;99.90
58983;DHT22;44771;49.982;8.560;2022-09-12T20:29:40;14.10;99.90
58983;DHT22;44771;49.982;8.560;2022-09-12T20:34:43;14.00;99.90
58983;DHT22;44771;49.982;8.560;2022-09-12T20:39:45;13.90;99.90
58983;DHT22;44771;49.982;8.560;2022-09-12T20:44:51;13.90;99.90
58983;DHT22;44771;49.982;8.560;2022-09-12T20:49:57;13.70;99.90
58983;DHT22;44771;49.982;8.560;2022-09-12T20:54:59;13.60;99.90
58983;DHT22;44771;49.982;8.560;2022-09-12T21:00:01;13.50;99.90
58983;DHT22;44771;49.982;8.560;2022-09-12T21:05:04;13.50;99.90
58983;DHT22;44771;49.982;8.560;2022-09-12T21:10:07;13.50;99.90
58983;DHT22;44771;49.982;8.560;2022-09-12T21:15:09;13.40;99.90
58983;DHT22;44771;49.982;8.560;2022-09-12T21:20:12;13.30;99.90
58983;DHT22;44771;49.982;8.560;2022-09-12T21:25:14;13.30;99.90
58983;DHT22;44771;49.982;8.560;2022-09-12T21:30:16;13.10;99.90
58983;DHT22;44771;49.982;8.560;2022-09-12T21:35:19;13.10;99.90
58983;DHT22;44771;49.982;8.560;2022-09-12T21:40:20;13.00;99.90
58983;DHT22;44771;49.982;8.560;2022-09-12T21:45:22;12.90;99.90
58983;DHT22;44771;49.982;8.560;2022-09-12T21:50:26;12.80;99.90
58983;DHT22;44771;49.982;8.560;2022-09-12T21:55:28;12.80;99.90
58983;DHT22;44771;49.982;8.560;2022-09-12T22:00:29;12.70;99.90
58983;DHT22;44771;49.982;8.560;2022-09-12T22:05:33;12.70;99.90
58983;DHT22;44771;49.982;8.560;2022-09-12T22:10:34;12.70;99.90
58983;DHT22;44771;49.982;8.560;2022-09-12T22:15:36;12.70;99.90
58983;DHT22;44771;49.982;8.560;2022-09-12T22:20:43;12.60;99.90
58983;DHT22;44771;49.982;8.560;2022-09-12T22:25:45;12.70;99.90
58983;DHT22;44771;49.982;8.560;2022-09-12T22:30:47;12.70;99.90
58983;DHT22;44771;49.982;8.560;2022-09-12T22:35:50;12.60;99.90
58983;DHT22;44771;49.982;8.560;2022-09-12T22:40:52;12.50;99.90
58983;DHT22;44771;49.982;8.560;2022-09-12T22:45:54;12.40;99.90
58983;DHT22;44771;49.982;8.560;2022-09-12T22:50:57;12.40;99.90
58983;DHT22;44771;49.982;8.560;2022-09-12T22:55:59;12.30;99.90
58983;DHT22;44771;49.982;8.560;2022-09-12T23:01:01;12.30;99.90
58983;DHT22;44771;49.982;8.560;2022-09-12T23:06:05;12.30;99.90
58983;DHT22;44771;49.982;8.560;2022-09-12T23:11:08;12.30;99.90
58983;DHT22;44771;49.982;8.560;2022-09-12T23:16:14;12.20;99.90
58983;DHT22;44771;49.982;8.560;2022-09-12T23:21:18;12.20;99.90
58983;DHT22;44771;49.982;8.560;2022-09-12T23:26:22;12.10;99.90
58983;DHT22;44771;49.982;8.560;2022-09-12T23:31:26;12.10;99.90
58983;DHT22;44771;49.982;8.560;2022-09-12T23:36:29;12.00;99.90
58983;DHT22;44771;49.982;8.560;2022-09-12T23:41:31;12.00;99.90
58983;DHT22;44771;49.982;8.560;2022-09-12T23:46:33;12.00;99.90
58983;DHT22;44771;49.982;8.560;2022-09-12T23:51:36;11.90;99.90
58983;DHT22;44771;49.982;8.560;2022-09-12T23:56:38;11.90;99.90
